ADDS METAR Data INFO
IDs: Format: Raw Decoded Include TAF

Data at: 1229 UTC 20 Jul 2018

METAR for:KEDC (Austin/Executive Arp, TX, US)
Text:KEDC 201215Z AUTO 21007KT 5SM BR 24/24 A2998 RMK AO2
Temperature: 24.0°C ( 75°F)
Dewpoint: 24.0°C ( 75°F) [RH = 100%]
Pressure (altimeter):29.98 inches Hg (1015.3 mb)
Winds:from the SSW (210 degrees) at 8 MPH (7 knots; 3.6 m/s)
Visibility: 5 sm ( 8 km)
Weather:BR (mist)
QC Flag:automated observation with no human augmentation